Time;durP1;ratioP1;P1;durP2;ratioP2;P2;SDS_P1;SDS_P2;PMS_P1;PMS_P2;Temp;Humidity;BMP_temperature;BMP_pressure;BME280_temperature;BME280_humidity;BME280_pressure;Samples;Min_cycle;Max_cycle;Signal;HPM_P1;HPM_P2
2022/07/14 00:00:39;;;;;;;1.70;1.60;;;;;;;22.26;45.57;95138.47;5072666;28;20581;-84
2022/07/14 00:03:06;;;;;;;1.60;1.50;;;;;;;22.25;45.65;95134.25;5072690;28;20206;-82
2022/07/14 00:05:35;;;;;;;2.17;1.40;;;;;;;22.23;45.69;95138.06;5072853;28;20190;-82
2022/07/14 00:08:02;;;;;;;3.28;1.52;;;;;;;22.20;45.67;95139.28;5071795;28;20210;-82
2022/07/14 00:10:29;;;;;;;1.50;1.40;;;;;;;22.16;45.73;95137.25;5072576;28;20237;-82
2022/07/14 00:12:56;;;;;;;2.95;1.60;;;;;;;22.10;45.80;95128.38;5071784;28;20593;-82
2022/07/14 00:15:23;;;;;;;2.08;1.50;;;;;;;21.74;45.83;95069.63;5072006;28;20201;-82
2022/07/14 00:17:51;;;;;;;1.75;1.38;;;;;;;22.14;45.96;95136.66;5071041;28;20236;-83
2022/07/14 00:20:18;;;;;;;1.65;1.42;;;;;;;22.09;46.02;95132.00;5072089;28;20210;-83
2022/07/14 00:22:46;;;;;;;4.35;1.60;;;;;;;21.93;46.01;95111.53;5071443;28;20201;-84
2022/07/14 00:25:13;;;;;;;1.73;1.63;;;;;;;22.11;46.08;95144.84;5071263;28;20712;-82
2022/07/14 00:27:39;;;;;;;1.38;1.30;;;;;;;22.09;46.13;95141.63;5071628;28;20880;-82
2022/07/14 00:30:07;;;;;;;2.30;1.50;;;;;;;22.07;46.09;95138.44;5071492;28;20179;-82
2022/07/14 00:32:36;;;;;;;1.77;1.60;;;;;;;21.63;45.95;95072.84;5071315;28;20194;-83
2022/07/14 00:35:03;;;;;;;4.88;1.70;;;;;;;22.03;46.07;95140.63;5071258;28;20290;-83
2022/07/14 00:37:29;;;;;;;2.47;1.55;;;;;;;22.00;46.24;95139.19;5071265;28;20194;-83
2022/07/14 00:40:02;;;;;;;3.28;1.50;;;;;;;21.99;46.32;95142.00;5070713;28;20189;-83
2022/07/14 00:42:34;;;;;;;4.35;1.60;;;;;;;21.84;46.18;95121.31;5071623;28;20281;-83
2022/07/14 00:45:03;;;;;;;1.73;1.30;;;;;;;21.94;46.27;95137.41;5071137;28;20273;-82
2022/07/14 00:47:31;;;;;;;3.47;1.50;;;;;;;21.93;46.43;95137.56;5071094;28;20193;-83
2022/07/14 00:49:58;;;;;;;2.50;1.42;;;;;;;21.90;46.52;95133.56;5071085;28;20195;-82
2022/07/14 00:52:27;;;;;;;1.90;1.50;;;;;;;21.88;46.45;95132.94;5071236;28;20190;-83
2022/07/14 00:54:54;;;;;;;1.80;1.70;;;;;;;21.87;46.54;95135.75;5070377;28;20664;-81
2022/07/14 00:57:23;;;;;;;1.50;1.40;;;;;;;21.80;46.59;95135.72;5070945;28;20178;-82
2022/07/14 00:59:50;;;;;;;2.20;1.50;;;;;;;21.84;46.61;95136.16;5070780;28;20190;-83
2022/07/14 01:02:18;;;;;;;3.13;1.80;;;;;;;21.81;46.58;95134.75;5070851;28;20304;-83
2022/07/14 01:04:46;;;;;;;1.77;1.50;;;;;;;21.78;46.76;95127.31;5070669;28;20680;-82
2022/07/14 01:07:13;;;;;;;2.42;1.38;;;;;;;21.70;46.78;95120.50;5070446;28;20678;-85
2022/07/14 01:09:40;;;;;;;1.93;1.70;;;;;;;21.51;46.86;95090.00;5070213;28;20586;-84
2022/07/14 01:12:08;;;;;;;3.15;1.58;;;;;;;21.73;46.90;95124.53;5070809;28;20195;-84
2022/07/14 01:14:38;;;;;;;2.55;1.52;;;;;;;21.71;46.86;95129.09;5070592;28;20178;-85
2022/07/14 01:17:05;;;;;;;6.47;1.88;;;;;;;21.68;46.89;95122.50;5070234;28;20194;-84
2022/07/14 01:19:33;;;;;;;1.80;1.60;;;;;;;21.37;47.02;95076.13;5070821;28;20206;-83
2022/07/14 01:22:02;;;;;;;4.15;1.77;;;;;;;21.66;46.87;95124.47;5070557;28;20194;-82
2022/07/14 01:24:29;;;;;;;5.50;1.77;;;;;;;21.65;46.87;95124.69;5070433;28;20217;-82
2022/07/14 01:26:56;;;;;;;4.53;1.87;;;;;;;21.59;47.02;95112.44;5070565;28;20244;-83
2022/07/14 01:29:23;;;;;;;5.20;1.60;;;;;;;21.63;46.93;95127.50;5070512;28;20229;-81
2022/07/14 01:31:50;;;;;;;1.87;1.53;;;;;;;21.49;46.98;95103.19;5070429;28;20191;-82
2022/07/14 01:34:17;;;;;;;2.40;1.40;;;;;;;21.59;46.94;95126.28;5070324;28;20281;-83
2022/07/14 01:36:44;;;;;;;5.93;1.75;;;;;;;21.57;47.16;95120.44;5069860;28;20669;-83
2022/07/14 01:39:13;;;;;;;2.97;1.70;;;;;;;21.51;47.23;95110.84;5070894;28;20202;-83
2022/07/14 01:41:40;;;;;;;1.65;1.55;;;;;;;21.37;47.09;95088.34;5070524;28;20225;-83
2022/07/14 01:44:06;;;;;;;1.60;1.50;;;;;;;21.09;47.20;95052.00;5070327;28;20281;-82
2022/07/14 01:46:34;;;;;;;3.10;1.50;;;;;;;21.46;47.19;95106.22;5069794;28;20197;-84
2022/07/14 01:49:00;;;;;;;3.67;1.70;;;;;;;21.32;47.19;95094.13;5069884;28;20697;-82
2022/07/14 01:51:27;;;;;;;1.57;1.47;;;;;;;21.25;47.37;95075.88;5069911;28;20194;-83
2022/07/14 01:53:54;;;;;;;1.77;1.33;;;;;;;21.40;47.45;95098.38;5069738;28;20197;-83
2022/07/14 01:56:23;;;;;;;2.17;1.67;;;;;;;21.39;47.49;95096.78;5070223;28;20185;-82
2022/07/14 01:58:50;;;;;;;2.00;1.52;;;;;;;21.37;47.61;95098.75;5069872;28;20214;-82
2022/07/14 02:04:02;;;;;;;5.43;1.60;;;;;;;21.05;47.61;95065.38;5070207;28;20201;-82
2022/07/14 02:06:29;;;;;;;1.53;1.40;;;;;;;21.32;47.82;95114.16;5069630;28;20634;-83
2022/07/14 02:08:55;;;;;;;2.50;1.57;;;;;;;21.24;47.67;95102.06;5069810;28;20220;-82
2022/07/14 02:14:08;;;;;;;2.50;1.60;;;;;;;21.21;47.83;95118.09;5070876;28;20300;-82
2022/07/14 02:16:35;;;;;;;2.20;1.40;;;;;;;21.19;47.84;95114.84;5061317;28;20560;-83
2022/07/14 02:19:03;;;;;;;2.63;1.70;;;;;;;21.17;47.86;95112.47;5050095;28;20195;-82
2022/07/14 02:21:30;;;;;;;2.30;1.50;;;;;;;21.16;48.07;95113.47;5050152;28;20195;-83
2022/07/14 02:23:57;;;;;;;2.67;1.57;;;;;;;21.15;48.08;95118.84;5049844;28;20198;-82
2022/07/14 02:26:26;;;;;;;1.77;1.50;;;;;;;21.13;48.35;95116.44;5050216;28;20237;-83
2022/07/14 02:28:53;;;;;;;2.97;1.60;;;;;;;21.11;48.24;95113.22;5050172;28;20298;-83
2022/07/14 02:31:20;;;;;;;5.07;1.40;;;;;;;21.11;48.16;95122.81;5049929;28;20202;-82
2022/07/14 02:33:47;;;;;;;3.23;1.50;;;;;;;21.06;48.34;95113.00;5049574;28;20810;-83
2022/07/14 02:36:14;;;;;;;2.70;1.80;;;;;;;20.96;48.37;95105.53;5057606;28;20205;-83
2022/07/14 02:38:41;;;;;;;3.27;2.20;;;;;;;21.01;48.51;95123.97;5069441;28;20190;-83
2022/07/14 02:41:08;;;;;;;1.83;1.50;;;;;;;21.00;48.31;95126.78;5069825;28;20642;-83
2022/07/14 02:43:36;;;;;;;3.27;1.50;;;;;;;20.98;48.91;95124.38;5069753;28;20190;-83
2022/07/14 02:46:04;;;;;;;3.43;2.03;;;;;;;20.87;48.60;95111.09;5069773;28;20190;-83
2022/07/14 02:48:31;;;;;;;1.73;1.47;;;;;;;20.94;48.74;95119.72;5069585;28;20234;-83
2022/07/14 02:51:01;;;;;;;2.93;1.60;;;;;;;20.93;49.02;95124.13;5069957;28;20226;-84
2022/07/14 02:53:29;;;;;;;1.70;1.60;;;;;;;20.91;48.83;95120.91;5069330;28;20175;-83
2022/07/14 02:55:56;;;;;;;2.07;1.80;;;;;;;20.89;48.69;95122.88;5070955;28;20191;-84
2022/07/14 02:58:24;;;;;;;2.03;1.67;;;;;;;20.88;48.84;95125.69;5073182;28;20187;-83
2022/07/14 03:00:52;;;;;;;2.50;1.67;;;;;;;20.82;48.96;95122.06;5073253;28;20691;-84
2022/07/14 03:03:19;;;;;;;1.70;1.60;;;;;;;20.85;48.93;95126.06;5073236;28;20226;-83
2022/07/14 03:05:46;;;;;;;1.63;1.53;;;;;;;20.83;49.04;95128.88;5072893;28;20194;-84
2022/07/14 03:08:13;;;;;;;2.00;1.67;;;;;;;20.83;48.94;95139.25;5073326;28;20195;-84
2022/07/14 03:10:40;;;;;;;1.73;1.63;;;;;;;20.82;48.95;95142.06;5072821;28;20190;-83
2022/07/14 03:13:07;;;;;;;2.77;1.80;;;;;;;20.82;48.93;95137.66;5073102;28;20194;-85
2022/07/14 03:15:34;;;;;;;3.10;1.60;;;;;;;20.77;49.04;95124.44;5072470;28;20225;-84
2022/07/14 03:18:02;;;;;;;1.67;1.57;;;;;;;20.83;49.09;95141.06;5073154;28;20607;-83
2022/07/14 03:20:29;;;;;;;3.13;1.60;;;;;;;20.60;49.19;95105.72;5072973;28;20183;-83
2022/07/14 03:22:56;;;;;;;2.87;2.03;;;;;;;20.82;49.10;95142.06;5072893;28;20244;-83
2022/07/14 03:25:24;;;;;;;3.57;1.90;;;;;;;20.80;49.22;95143.03;5072405;28;20194;-84
2022/07/14 03:27:51;;;;;;;2.83;2.00;;;;;;;20.80;49.30;95150.84;5072826;28;20183;-84
2022/07/14 03:30:17;;;;;;;5.67;2.13;;;;;;;20.82;49.41;95145.47;5072717;28;20225;-84
2022/07/14 03:32:44;;;;;;;3.43;2.03;;;;;;;20.81;49.36;95162.03;5073192;28;20190;-84
2022/07/14 03:35:13;;;;;;;4.93;2.33;;;;;;;20.78;49.55;95152.84;5072294;28;20193;-84
2022/07/14 03:37:39;;;;;;;6.30;2.17;;;;;;;20.81;49.77;95164.63;5072350;28;20634;-83
2022/07/14 03:40:08;;;;;;;3.37;2.37;;;;;;;20.47;49.68;95109.00;5072748;28;20203;-83
2022/07/14 03:42:34;;;;;;;6.10;2.27;;;;;;;20.80;49.87;95169.03;5072510;28;20197;-83
2022/07/14 03:45:01;;;;;;;2.13;1.90;;;;;;;20.82;49.72;95168.84;5069861;28;20191;-83
2022/07/14 03:47:28;;;;;;;5.60;2.07;;;;;;;20.69;49.74;95150.56;5072004;28;20195;-84
2022/07/14 03:49:55;;;;;;;3.73;2.60;;;;;;;20.78;49.75;95173.63;5072425;28;20728;-84
2022/07/14 03:52:23;;;;;;;7.23;2.40;;;;;;;20.75;50.02;95176.59;5071704;28;20191;-84
2022/07/14 03:54:50;;;;;;;2.93;2.30;;;;;;;20.75;49.88;95171.41;5072750;28;20272;-83
2022/07/14 03:57:17;;;;;;;3.73;2.10;;;;;;;20.77;49.79;95169.44;5072260;28;20194;-84
2022/07/14 03:59:43;;;;;;;3.00;2.17;;;;;;;20.80;49.93;95163.84;5072233;28;20649;-84
2022/07/14 04:02:10;;;;;;;8.07;2.50;;;;;;;20.79;49.98;95153.63;5072106;28;20197;-81
2022/07/14 04:04:38;;;;;;;2.27;2.00;;;;;;;20.85;49.97;95158.06;5071908;28;20190;-85
2022/07/14 04:07:05;;;;;;;3.13;2.27;;;;;;;20.88;49.69;95156.88;5071673;28;20186;-84
2022/07/14 04:09:33;;;;;;;2.90;1.93;;;;;;;20.79;50.09;95144.03;5072252;28;20218;-83
2022/07/14 04:12:00;;;;;;;3.30;2.10;;;;;;;20.92;50.07;95160.72;5072712;28;20569;-84
2022/07/14 04:14:27;;;;;;;2.57;2.30;;;;;;;20.92;49.90;95163.31;5072379;28;20197;-84
2022/07/14 04:16:54;;;;;;;2.87;2.30;;;;;;;20.48;49.94;95094.25;5072470;28;20545;-85
2022/07/14 04:19:21;;;;;;;3.60;2.23;;;;;;;20.96;49.97;95173.16;5072266;28;20197;-84
2022/07/14 04:21:48;;;;;;;2.70;2.30;;;;;;;20.99;49.92;95172.78;5071593;28;20611;-85
2022/07/14 04:24:15;;;;;;;6.80;2.20;;;;;;;21.02;49.96;95174.97;5071530;28;20190;-85
2022/07/14 04:26:43;;;;;;;2.60;2.40;;;;;;;21.04;49.90;95180.00;5071753;28;20179;-83
2022/07/14 04:29:12;;;;;;;6.97;2.30;;;;;;;20.93;49.90;95157.13;5071521;28;20222;-84
2022/07/14 04:31:38;;;;;;;2.50;2.30;;;;;;;21.08;49.81;95183.84;5071650;28;20190;-84
2022/07/14 04:34:05;;;;;;;5.20;2.90;;;;;;;21.06;49.82;95178.00;5072066;28;20197;-84
2022/07/14 04:36:32;;;;;;;6.83;2.10;;;;;;;21.14;49.77;95192.66;5071455;28;20196;-83
2022/07/14 04:38:59;;;;;;;6.13;3.17;;;;;;;21.16;49.78;95186.28;5074464;28;20195;-83
2022/07/14 04:41:26;;;;;;;2.63;2.10;;;;;;;21.18;49.72;95180.88;5082524;28;20255;-83
2022/07/14 04:43:55;;;;;;;2.30;1.98;;;;;;;21.23;49.86;95188.91;5075301;28;20256;-82
2022/07/14 04:46:21;;;;;;;3.23;2.00;;;;;;;21.21;49.77;95189.13;5061536;28;20190;-82
2022/07/14 04:54:17;;;;;;;6.60;2.30;;;;;;;21.26;49.49;95185.94;5088560;28;20236;-84
2022/07/14 04:56:44;;;;;;;5.77;2.30;;;;;;;21.37;49.42;95195.03;5082768;28;20185;-83
2022/07/14 04:59:12;;;;;;;7.80;2.10;;;;;;;21.58;54.41;95196.72;5073261;28;20186;-86
2022/07/14 05:01:39;;;;;;;5.93;1.90;;;;;;;21.76;56.06;95195.22;5070436;28;20206;-82
2022/07/14 05:04:06;;;;;;;8.80;2.23;;;;;;;21.98;56.11;95200.31;5071078;28;20197;-84
2022/07/14 05:06:33;;;;;;;17.70;3.92;;;;;;;22.19;56.82;95196.78;5071260;28;20186;-86
2022/07/14 05:08:59;;;;;;;11.88;5.57;;;;;;;22.09;58.74;95146.84;5070960;28;20221;-84
2022/07/14 05:11:26;;;;;;;7.90;5.20;;;;;;;22.54;59.04;95194.84;5071023;28;20198;-91
2022/07/14 05:13:53;;;;;;;18.40;4.45;;;;;;;22.73;59.05;95193.25;5070937;28;20194;-84
2022/07/14 05:16:22;;;;;;;15.45;3.63;;;;;;;23.02;58.37;95179.81;5071156;28;20214;-84
2022/07/14 05:18:49;;;;;;;7.45;3.65;;;;;;;23.54;57.50;95206.00;5070367;28;20669;-83
2022/07/14 05:21:19;;;;;;;14.80;3.70;;;;;;;24.02;56.11;95203.03;5062625;28;20190;-89
2022/07/14 05:23:48;;;;;;;18.02;4.07;;;;;;;24.58;54.86;95196.31;5063056;28;20194;-82
2022/07/14 05:26:15;;;;;;;10.80;4.13;;;;;;;25.14;53.94;95198.88;5052163;28;20191;-84
2022/07/14 05:28:42;;;;;;;16.48;3.90;;;;;;;25.75;52.53;95189.38;5067133;28;20229;-83
2022/07/14 05:31:09;;;;;;;11.95;3.05;;;;;;;26.39;50.89;95192.41;5060116;28;20195;-83
2022/07/14 05:33:37;;;;;;;5.75;2.63;;;;;;;27.04;49.51;95202.13;5062555;28;20195;-81
2022/07/14 05:36:05;;;;;;;9.15;3.03;;;;;;;27.68;47.86;95195.13;5057339;28;20249;-85
2022/07/14 05:38:32;;;;;;;4.80;2.67;;;;;;;28.18;46.05;95184.81;5066727;28;20194;-82
2022/07/14 05:41:01;;;;;;;13.30;2.60;;;;;;;28.80;44.10;95189.31;5066796;28;20627;-82
2022/07/14 05:43:28;;;;;;;8.55;2.17;;;;;;;29.35;42.58;95193.81;5062790;28;20320;-83
2022/07/14 05:45:55;;;;;;;8.32;2.47;;;;;;;30.01;42.02;95209.72;5063956;28;20784;-83
2022/07/14 05:48:22;;;;;;;6.68;2.53;;;;;;;30.43;40.80;95190.63;5064989;28;20227;-82
2022/07/14 05:50:50;;;;;;;6.80;2.70;;;;;;;30.94;39.76;95205.09;5065249;28;20226;-82
2022/07/14 05:53:17;;;;;;;5.38;2.40;;;;;;;31.37;38.96;95200.66;5050185;28;20187;-83
2022/07/14 05:55:45;;;;;;;7.25;2.40;;;;;;;31.81;38.43;95205.63;5052666;28;20186;-85
2022/07/14 05:58:13;;;;;;;5.82;2.47;;;;;;;32.20;37.60;95206.03;5058709;28;20611;-84
2022/07/14 06:00:39;;;;;;;8.85;2.00;;;;;;;32.44;36.98;95179.13;5062030;28;20209;-84
2022/07/14 06:03:06;;;;;;;7.75;2.42;;;;;;;32.83;36.51;95187.34;5064729;28;20213;-84
2022/07/14 06:05:34;;;;;;;11.68;2.55;;;;;;;33.20;35.99;95194.22;5067826;28;20198;-84
2022/07/14 06:08:02;;;;;;;5.45;2.40;;;;;;;33.26;34.47;95161.34;5070039;28;20273;-84
2022/07/14 06:10:29;;;;;;;4.85;2.45;;;;;;;33.76;34.39;95198.59;5069965;28;20214;-85
2022/07/14 06:12:56;;;;;;;4.65;2.45;;;;;;;33.99;34.21;95184.75;5071018;28;20201;-84
2022/07/14 06:15:23;;;;;;;4.63;2.10;;;;;;;34.12;33.92;95178.84;5067336;28;20665;-84
2022/07/14 06:17:50;;;;;;;2.55;2.20;;;;;;;34.40;33.54;95190.59;5062109;28;20561;-84
2022/07/14 06:20:17;;;;;;;6.70;2.40;;;;;;;34.61;33.47;95182.53;5067339;28;20190;-85
2022/07/14 06:22:43;;;;;;;4.05;2.22;;;;;;;34.70;33.14;95176.34;5068357;28;20566;-85
2022/07/14 06:25:12;;;;;;;3.92;2.00;;;;;;;34.97;32.46;95188.38;5067188;28;20194;-85
2022/07/14 06:27:39;;;;;;;4.20;2.10;;;;;;;35.13;32.71;95187.16;5063650;28;20209;-86
2022/07/14 06:30:07;;;;;;;4.55;2.00;;;;;;;35.30;31.74;95188.59;5068676;28;20210;-86
2022/07/14 06:32:34;;;;;;;2.42;2.10;;;;;;;35.33;31.27;95170.22;5069954;28;20209;-85
2022/07/14 06:35:00;;;;;;;6.20;2.40;;;;;;;35.59;31.24;95191.25;5073077;28;20191;-86
2022/07/14 06:37:27;;;;;;;3.92;2.10;;;;;;;35.42;31.18;95141.91;5070776;28;20197;-86
2022/07/14 06:39:55;;;;;;;6.65;2.00;;;;;;;35.82;30.90;95187.78;5072837;28;20260;-87
2022/07/14 06:42:23;;;;;;;2.85;2.40;;;;;;;35.89;30.54;95180.25;5072744;28;20202;-85
2022/07/14 06:44:50;;;;;;;3.72;1.98;;;;;;;36.01;30.62;95181.69;5071051;28;20202;-85
2022/07/14 06:47:17;;;;;;;2.78;1.85;;;;;;;36.12;30.53;95181.28;5072954;28;20182;-85
2022/07/14 06:49:44;;;;;;;5.15;2.03;;;;;;;36.22;30.80;95171.56;5072362;28;20233;-86
2022/07/14 06:52:10;;;;;;;6.43;1.90;;;;;;;36.38;30.69;95183.59;5071535;28;20240;-85
2022/07/14 06:54:38;;;;;;;3.78;2.22;;;;;;;36.50;29.78;95180.53;5070433;28;20282;-85
2022/07/14 06:57:05;;;;;;;2.72;1.70;;;;;;;36.57;29.70;95180.94;5073351;28;20237;-85
2022/07/14 06:59:33;;;;;;;4.38;1.90;;;;;;;36.64;29.59;95179.50;5071524;28;20190;-86
2022/07/14 07:02:00;;;;;;;3.67;1.73;;;;;;;36.71;29.27;95181.78;5070155;28;20187;-85
2022/07/14 07:04:27;;;;;;;2.30;2.03;;;;;;;36.74;29.50;95167.88;5070970;28;20619;-84
2022/07/14 07:06:53;;;;;;;1.75;1.65;;;;;;;36.81;29.56;95167.50;5068675;28;20198;-84
2022/07/14 07:09:20;;;;;;;2.65;1.73;;;;;;;36.68;29.54;95132.50;5072241;28;20538;-83
2022/07/14 07:11:50;;;;;;;4.50;2.03;;;;;;;36.95;29.01;95163.00;5071329;28;20199;-83
2022/07/14 07:14:17;;;;;;;3.13;1.65;;;;;;;37.02;29.06;95168.78;5072824;28;20187;-83
2022/07/14 07:16:47;;;;;;;2.75;1.80;;;;;;;37.10;29.19;95165.44;5072876;28;20190;-83
2022/07/14 07:19:14;;;;;;;5.45;1.77;;;;;;;37.11;28.92;95164.34;5072466;28;20194;-83
2022/07/14 07:21:41;;;;;;;5.30;1.83;;;;;;;37.17;28.69;95163.16;5072444;28;20186;-84
2022/07/14 07:24:09;;;;;;;3.25;1.55;;;;;;;37.19;28.42;95162.09;5068140;28;20190;-84
2022/07/14 07:26:37;;;;;;;5.07;1.77;;;;;;;37.28;28.78;95177.09;5070216;28;20680;-84
2022/07/14 07:29:05;;;;;;;5.93;2.05;;;;;;;37.29;28.60;95170.69;5071597;28;20550;-84
2022/07/14 07:31:33;;;;;;;2.95;1.80;;;;;;;37.34;28.97;95165.25;5070698;28;20198;-84
2022/07/14 07:34:02;;;;;;;4.13;1.77;;;;;;;37.14;29.07;95133.63;5072262;28;20197;-84
2022/07/14 07:36:29;;;;;;;2.97;1.83;;;;;;;37.41;28.57;95167.56;5072127;28;20194;-83
2022/07/14 07:38:56;;;;;;;1.52;1.42;;;;;;;37.22;28.45;95132.13;5070574;28;20189;-83
2022/07/14 07:41:23;;;;;;;1.65;1.55;;;;;;;37.43;28.94;95162.69;5071857;28;20244;-83
2022/07/14 07:43:50;;;;;;;3.35;1.65;;;;;;;37.05;28.74;95098.03;5069221;28;20249;-84
2022/07/14 07:46:17;;;;;;;3.10;1.58;;;;;;;37.51;28.63;95163.91;5071796;28;20272;-84
2022/07/14 07:48:44;;;;;;;1.98;1.52;;;;;;;37.44;28.33;95150.97;5070959;28;20252;-83
2022/07/14 07:51:13;;;;;;;1.55;1.45;;;;;;;37.56;28.61;95161.13;5070048;28;20309;-82
2022/07/14 07:53:39;;;;;;;2.22;1.60;;;;;;;37.54;28.59;95149.97;5078212;28;20265;-83
2022/07/14 07:56:07;;;;;;;2.15;1.67;;;;;;;37.57;28.58;95155.50;5076850;28;20202;-89
2022/07/14 07:58:34;;;;;;;2.05;1.63;;;;;;;37.57;28.53;95158.19;5077068;28;20189;-90
2022/07/14 08:01:01;;;;;;;2.80;1.73;;;;;;;37.57;28.61;95152.06;5092447;28;20186;-87
2022/07/14 08:03:28;;;;;;;1.63;1.40;;;;;;;37.29;28.55;95108.53;5093636;28;20251;-86
2022/07/14 08:05:56;;;;;;;1.95;1.58;;;;;;;37.53;28.97;95151.06;5089334;28;20187;-94
2022/07/14 08:08:24;;;;;;;2.42;1.55;;;;;;;37.49;28.75;95145.53;5090583;28;20253;-85
2022/07/14 08:10:51;;;;;;;6.93;1.75;;;;;;;37.35;28.60;95129.50;5086236;28;20233;-82
2022/07/14 08:13:18;;;;;;;4.47;1.88;;;;;;;37.41;28.04;95140.88;5087191;28;20728;-82
2022/07/14 08:15:45;;;;;;;4.13;1.67;;;;;;;37.33;27.79;95133.53;5084766;28;20199;-92
2022/07/14 08:18:12;;;;;;;1.92;1.73;;;;;;;37.31;28.04;95133.84;5078610;28;20190;-86
2022/07/14 08:20:40;;;;;;;2.90;1.58;;;;;;;37.26;28.39;95139.25;5082600;28;20336;-91
2022/07/14 08:23:09;;;;;;;3.03;1.80;;;;;;;37.08;28.81;95121.44;5092295;28;20221;-91
2022/07/14 08:25:38;;;;;;;1.88;1.70;;;;;;;37.05;28.64;95120.19;5086924;28;20205;-85
2022/07/14 08:28:06;;;;;;;2.17;1.60;;;;;;;37.09;28.32;95133.69;5093008;28;20228;-88
2022/07/14 08:30:36;;;;;;;2.30;1.45;;;;;;;36.59;28.95;95067.63;5089296;28;20222;-88
2022/07/14 08:33:08;;;;;;;2.35;1.45;;;;;;;36.82;29.22;95113.09;5096448;28;20181;-89
2022/07/14 08:35:35;;;;;;;4.80;1.55;;;;;;;36.79;29.36;95121.66;5090939;28;20246;-86
2022/07/14 08:38:05;;;;;;;4.88;1.40;;;;;;;36.25;29.46;95043.13;5096134;28;20213;-84
2022/07/14 08:40:37;;;;;;;1.85;1.40;;;;;;;36.32;29.26;95083.53;5091050;28;20197;-90
2022/07/14 08:43:09;;;;;;;1.63;1.52;;;;;;;36.38;29.60;95093.00;5091554;28;20224;-84
2022/07/14 08:45:44;;;;;;;6.68;1.80;;;;;;;36.27;29.72;95091.56;5092108;28;20194;-86
2022/07/14 08:48:11;;;;;;;3.65;1.73;;;;;;;36.30;29.68;95113.09;5092118;28;20218;-91
2022/07/14 08:50:40;;;;;;;3.58;1.90;;;;;;;36.13;29.84;95108.28;5094626;28;20273;-90
2022/07/14 08:53:12;;;;;;;1.60;1.50;;;;;;;36.13;29.82;95120.81;5095195;28;20189;-88
2022/07/14 08:55:40;;;;;;;5.22;1.98;;;;;;;36.05;29.93;95116.94;5096131;28;20189;-86
2022/07/14 08:58:10;;;;;;;4.82;1.48;;;;;;;35.75;30.20;95082.72;5095389;28;20198;-89
2022/07/14 09:00:40;;;;;;;3.63;1.52;;;;;;;35.86;29.58;95110.78;5096191;28;20186;-84
2022/07/14 09:03:41;;;;;;;2.35;1.70;;;;;;;35.75;30.04;95107.47;5089468;28;20277;-90
2022/07/14 09:06:09;;;;;;;2.33;1.73;;;;;;;35.30;30.42;95047.63;5081348;28;20186;-92
2022/07/14 09:08:57;;;;;;;2.45;1.98;;;;;;;35.53;30.34;95109.88;5085135;28;20201;-90
2022/07/14 09:11:24;;;;;;;3.08;1.63;;;;;;;35.29;30.38;95088.59;5075337;28;20218;-92
2022/07/14 09:13:53;;;;;;;1.63;1.52;;;;;;;34.74;30.27;95011.00;5082066;28;20194;-92
2022/07/14 09:16:22;;;;;;;3.60;1.50;;;;;;;35.14;30.08;95095.66;5079317;28;20265;-89
2022/07/14 09:19:09;;;;;;;1.85;1.40;;;;;;;34.63;30.24;95029.72;5068566;28;20732;-90
2022/07/14 09:21:39;;;;;;;1.73;1.48;;;;;;;34.95;30.58;95105.41;5074203;28;20584;-92
2022/07/14 09:24:07;;;;;;;2.88;1.63;;;;;;;34.77;30.53;95092.84;5076926;28;20196;-85
2022/07/14 09:26:43;;;;;;;1.52;1.42;;;;;;;34.70;29.82;95098.47;5072637;28;20273;-86
2022/07/14 09:29:17;;;;;;;2.42;1.88;;;;;;;34.58;30.21;95090.09;5071734;28;20190;-81
2022/07/14 09:31:47;;;;;;;2.70;1.50;;;;;;;34.42;30.23;95084.88;5080007;28;20221;-88
2022/07/14 09:34:33;;;;;;;2.47;1.58;;;;;;;34.19;30.51;95065.13;5088159;28;20194;-87
2022/07/14 09:37:14;;;;;;;1.80;1.70;;;;;;;34.20;30.48;95084.53;5079578;28;20205;-86
2022/07/14 09:39:55;;;;;;;1.60;1.50;;;;;;;33.95;30.51;95053.63;5081038;28;20197;-84
2022/07/14 09:42:58;;;;;;;1.70;1.58;;;;;;;34.01;30.81;95073.75;5088460;28;20767;-85
2022/07/14 09:45:35;;;;;;;2.47;1.90;;;;;;;33.86;30.70;95073.84;5093912;28;20170;-92
2022/07/14 09:48:06;;;;;;;1.20;1.10;;;;;;;33.63;31.09;95043.44;5086616;28;20244;-85
2022/07/14 09:50:47;;;;;;;1.67;1.58;;;;;;;33.35;31.18;95018.38;5082232;28;20230;-86
2022/07/14 09:53:23;;;;;;;1.95;1.52;;;;;;;33.32;31.61;95038.28;5091072;28;20190;-88
2022/07/14 09:55:53;;;;;;;2.20;1.60;;;;;;;33.21;31.45;95037.53;5083611;28;20190;-87
2022/07/14 09:58:21;;;;;;;2.15;1.45;;;;;;;33.00;31.70;95027.28;5089652;28;20204;-86
2022/07/14 10:01:00;;;;;;;1.67;1.58;;;;;;;33.19;31.35;95073.34;5088145;28;20201;-89
2022/07/14 10:03:29;;;;;;;2.38;1.83;;;;;;;33.11;31.26;95063.28;5091443;28;20258;-88
2022/07/14 10:05:57;;;;;;;2.28;1.50;;;;;;;32.66;30.99;95006.69;5089123;28;20194;-93
2022/07/14 10:08:26;;;;;;;1.85;1.67;;;;;;;32.92;31.45;95063.09;5086564;28;20274;-87
2022/07/14 10:11:03;;;;;;;3.30;1.63;;;;;;;32.47;31.85;95001.97;5094809;28;20273;-88
2022/07/14 10:13:31;;;;;;;1.60;1.50;;;;;;;32.70;31.72;95042.97;5089934;28;20183;-88
2022/07/14 10:16:01;;;;;;;1.60;1.50;;;;;;;32.67;31.71;95051.44;5086145;28;20211;-86
2022/07/14 10:18:29;;;;;;;2.50;1.40;;;;;;;32.51;31.65;95031.34;5090260;28;20197;-87
2022/07/14 10:20:59;;;;;;;2.85;1.30;;;;;;;32.54;31.78;95038.75;5087631;28;20208;-88
2022/07/14 10:23:29;;;;;;;1.95;1.80;;;;;;;32.43;32.45;95039.84;5091799;28;20229;-87
2022/07/14 10:25:58;;;;;;;2.13;2.00;;;;;;;32.16;32.28;95008.31;5087168;28;20216;-86
2022/07/14 10:28:26;;;;;;;1.55;1.45;;;;;;;32.12;32.53;95001.94;5081888;28;20348;-87
2022/07/14 10:31:05;;;;;;;2.15;1.35;;;;;;;32.28;32.57;95034.50;5076587;28;20600;-85
2022/07/14 10:33:41;;;;;;;3.28;2.10;;;;;;;32.21;32.38;95040.88;5075416;28;20566;-86
2022/07/14 10:36:17;;;;;;;3.60;1.88;;;;;;;32.14;32.81;95036.91;5076013;28;20585;-87
2022/07/14 10:39:07;;;;;;;3.45;1.83;;;;;;;31.80;32.89;94988.97;5075196;28;20204;-86
2022/07/14 10:41:55;;;;;;;1.60;1.50;;;;;;;31.94;32.77;95019.94;5075794;28;20187;-85
2022/07/14 10:44:24;;;;;;;1.75;1.50;;;;;;;31.77;32.83;95005.34;5075001;28;20190;-88
2022/07/14 10:47:07;;;;;;;3.00;1.90;;;;;;;31.81;32.78;95017.78;5074101;28;20198;-86
2022/07/14 10:50:05;;;;;;;3.35;1.70;;;;;;;31.74;32.75;95017.28;5082311;28;20343;-89
2022/07/14 10:52:35;;;;;;;1.92;1.70;;;;;;;31.68;33.14;95023.59;5081971;28;20286;-93
2022/07/14 10:55:17;;;;;;;2.03;1.42;;;;;;;31.48;33.02;94992.63;5077623;28;20206;-90
2022/07/14 10:58:20;;;;;;;1.40;1.30;;;;;;;31.56;33.29;95018.53;5080938;28;20273;-88
2022/07/14 11:01:11;;;;;;;3.30;1.50;;;;;;;31.48;33.69;95011.16;5080550;28;20205;-86
2022/07/14 11:03:50;;;;;;;1.45;1.35;;;;;;;31.31;32.93;94979.66;5077039;28;20190;-89
2022/07/14 11:06:27;;;;;;;1.83;1.73;;;;;;;31.16;33.00;94961.06;5074944;28;20182;-90
2022/07/14 11:09:31;;;;;;;1.88;1.77;;;;;;;31.33;33.13;95003.94;5079246;28;20243;-85
2022/07/14 11:12:15;;;;;;;1.70;1.60;;;;;;;31.30;33.42;94998.38;5014089;28;20212;-86
2022/07/14 11:14:44;;;;;;;1.40;1.30;;;;;;;31.11;33.68;94963.69;5012414;28;20242;-85
2022/07/14 11:17:36;;;;;;;1.48;1.38;;;;;;;31.17;33.53;94984.56;5011002;28;20235;-86
2022/07/14 11:20:06;;;;;;;2.00;1.77;;;;;;;31.12;33.82;94974.00;5010285;28;20772;-86
2022/07/14 11:22:36;;;;;;;1.70;1.60;;;;;;;31.16;33.98;94983.00;5015173;28;20220;-86
2022/07/14 11:25:03;;;;;;;4.68;1.50;;;;;;;30.99;33.86;94961.28;5013264;28;20549;-87
2022/07/14 11:27:38;;;;;;;2.15;1.40;;;;;;;31.11;33.74;94998.03;5014719;28;20223;-84
2022/07/14 11:30:21;;;;;;;6.22;1.65;;;;;;;31.06;34.15;94984.81;5014107;28;20682;-85
2022/07/14 11:32:58;;;;;;;3.15;1.80;;;;;;;30.92;34.00;94960.72;5008427;28;20223;-84
2022/07/14 11:38:28;;;;;;;1.83;1.70;;;;;;;30.96;34.66;94981.09;5013326;28;20229;-90
2022/07/14 11:40:55;;;;;;;2.70;1.92;;;;;;;30.82;34.69;94966.75;5012979;28;20232;-92
2022/07/14 11:43:46;;;;;;;3.78;1.60;;;;;;;30.87;34.62;94971.25;5057360;28;20194;-92
2022/07/14 11:46:14;;;;;;;2.45;1.48;;;;;;;30.77;34.60;94960.66;5073762;28;20778;-87
2022/07/14 11:48:45;;;;;;;1.95;1.75;;;;;;;30.78;34.25;94976.22;5075130;28;20261;-93
2022/07/14 11:51:18;;;;;;;2.03;1.70;;;;;;;30.67;34.35;94967.47;5080315;28;20210;-90
2022/07/14 11:53:45;;;;;;;2.38;1.60;;;;;;;30.73;33.96;94971.72;5079697;28;20206;-91
2022/07/14 11:56:14;;;;;;;3.65;1.75;;;;;;;30.70;34.46;94966.94;5078335;28;20281;-93
2022/07/14 11:58:42;;;;;;;3.28;1.67;;;;;;;30.56;34.47;94947.31;5080911;28;20222;-93